Poinciana, Florida
Current Conditions -  °F | °C
As of 7:50 PM on Saturday 25 Oct 2014 (Local Time) from KISM Reporting Station
Clear Clear  
Wind Chill: 72°   Ceiling: Unl
Heat Index: 72°   Visibility: 10mi
Dew Point: 55°   Wind: 3mph
Humidity: 57%   Direction: 330°NNW
Pressure: 29.97"   Gusts: NA
Location:  28.0946°N, 81.4211°W
Report Text: KISM 252350Z 33003KT 10SM SKC 22/13 A2997
Loading
Personal Weather Stations






























Interactive Weather Map
Tropical Storm Tracking
New forecast layout! Learn more

10-Day Weather Forecast

Advertisements
Track Severe Weather on mobile